createdAt,value
2023-01-17T00:02:21.590Z,61.99
2023-01-17T00:05:08.152Z,55.99
2023-01-17T00:07:54.577Z,54.98
2023-01-17T00:10:25.169Z,57.07
2023-01-17T00:12:58.777Z,58.37
2023-01-17T00:15:28.370Z,59.41
2023-01-17T00:17:57.659Z,61.28
2023-01-17T00:20:46.157Z,61.53
2023-01-17T00:23:34.712Z,67.25
2023-01-17T00:26:05.544Z,66.63
2023-01-17T00:28:38.549Z,61.27
2023-01-17T00:31:08.661Z,55.63
2023-01-17T00:33:36.806Z,54.43
2023-01-17T00:36:05.172Z,55.51
2023-01-17T00:38:35.482Z,57.21
2023-01-17T00:41:06.464Z,58.40
2023-01-17T00:43:53.287Z,59.05
2023-01-17T00:46:39.963Z,60.53
2023-01-17T00:49:27.091Z,61.18
2023-01-17T00:52:13.537Z,66.28
2023-01-17T00:55:00.281Z,65.82
2023-01-17T00:57:46.691Z,60.04
2023-01-17T01:00:33.881Z,54.57
2023-01-17T01:03:27.199Z,54.36
2023-01-17T01:06:13.314Z,55.83
2023-01-17T01:08:59.799Z,57.50
2023-01-17T01:11:46.168Z,57.84
2023-01-17T01:14:32.836Z,59.72
2023-01-17T01:17:19.184Z,60.78
2023-01-17T01:20:05.988Z,61.91
2023-01-17T01:22:52.501Z,66.92
2023-01-17T01:25:39.120Z,67.12
2023-01-17T01:28:29.128Z,62.07
2023-01-17T01:31:21.876Z,55.70
2023-01-17T01:33:53.368Z,54.45
2023-01-17T01:36:21.538Z,55.64
2023-01-17T01:38:50.320Z,57.15
2023-01-17T01:41:18.200Z,58.28
2023-01-17T01:43:48.927Z,59.03
2023-01-17T01:46:31.098Z,59.58
2023-01-17T01:49:11.121Z,60.57
2023-01-17T01:51:41.846Z,60.86
2023-01-17T01:54:19.099Z,61.95
2023-01-17T01:56:48.088Z,66.71
2023-01-17T01:59:16.840Z,66.81
2023-01-17T02:01:44.714Z,62.14
2023-01-17T02:04:13.137Z,56.03
2023-01-17T02:06:49.053Z,53.73
2023-01-17T02:09:18.139Z,54.39
2023-01-17T02:11:46.998Z,56.00
2023-01-17T02:14:16.996Z,56.74
2023-01-17T02:16:54.548Z,57.86
2023-01-17T02:19:54.471Z,58.29
2023-01-17T02:22:37.633Z,59.09
2023-01-17T02:25:34.909Z,59.87
2023-01-17T02:28:27.619Z,59.94
2023-01-17T02:30:57.109Z,60.51
2023-01-17T02:33:30.991Z,59.75
2023-01-17T02:36:20.367Z,61.29
2023-01-17T02:38:56.433Z,61.65
2023-01-17T02:41:41.067Z,65.96
2023-01-17T02:44:10.219Z,67.62
2023-01-17T02:46:53.018Z,61.44
2023-01-17T02:49:23.868Z,53.86
2023-01-17T02:52:07.831Z,53.29
2023-01-17T02:55:03.093Z,53.92
2023-01-17T02:57:54.644Z,55.39
2023-01-17T03:00:31.614Z,56.53
2023-01-17T03:03:02.150Z,57.25
2023-01-17T03:05:52.989Z,58.21
2023-01-17T03:08:21.359Z,58.88
2023-01-17T03:10:49.280Z,59.75
2023-01-17T03:13:17.106Z,60.14
2023-01-17T03:15:45.378Z,60.56
2023-01-17T03:18:15.068Z,61.42
2023-01-17T03:20:42.932Z,61.89
2023-01-17T03:23:10.746Z,65.94
2023-01-17T03:25:38.478Z,66.26
2023-01-17T03:28:06.446Z,61.82
2023-01-17T03:30:34.304Z,54.35
2023-01-17T03:33:02.279Z,52.29
2023-01-17T03:35:30.130Z,53.32
2023-01-17T03:37:57.930Z,54.88
2023-01-17T03:40:25.687Z,55.59
2023-01-17T03:42:53.431Z,56.59
2023-01-17T03:45:21.156Z,57.30
2023-01-17T03:47:48.886Z,58.41
2023-01-17T03:50:16.785Z,58.83
2023-01-17T03:52:44.589Z,59.06
2023-01-17T03:55:12.343Z,59.46
2023-01-17T03:57:40.143Z,60.49
2023-01-17T04:00:08.582Z,60.50
2023-01-17T04:02:36.492Z,61.41
2023-01-17T04:05:05.225Z,64.40
2023-01-17T04:07:33.220Z,66.78
2023-01-17T04:10:01.061Z,61.75
2023-01-17T04:12:28.823Z,55.15
2023-01-17T04:14:56.558Z,53.20
2023-01-17T04:17:24.812Z,54.41
2023-01-17T04:19:52.808Z,55.04
2023-01-17T04:22:20.586Z,56.05
2023-01-17T04:24:48.661Z,56.89
2023-01-17T04:27:16.455Z,58.36
2023-01-17T04:29:46.595Z,60.13
2023-01-17T04:32:14.910Z,60.49
2023-01-17T04:34:42.666Z,60.78
2023-01-17T04:37:10.370Z,60.98
2023-01-17T04:39:38.097Z,61.31
2023-01-17T04:42:05.979Z,61.77
2023-01-17T04:44:33.712Z,65.40
2023-01-17T04:47:03.021Z,67.41
2023-01-17T04:49:31.262Z,61.09
2023-01-17T04:51:59.621Z,53.87
2023-01-17T04:54:27.426Z,52.21
2023-01-17T04:56:55.253Z,52.94
2023-01-17T04:59:23.061Z,54.27
2023-01-17T05:01:51.056Z,55.18
2023-01-17T05:04:18.907Z,56.07
2023-01-17T05:06:46.668Z,56.76
2023-01-17T05:09:14.809Z,57.28
2023-01-17T05:11:42.713Z,57.96
2023-01-17T05:14:10.951Z,58.38
2023-01-17T05:16:38.871Z,58.70
2023-01-17T05:19:06.896Z,59.11
2023-01-17T05:21:34.841Z,59.42
2023-01-17T05:24:02.590Z,59.85
2023-01-17T05:26:30.463Z,60.14
2023-01-17T05:28:58.300Z,60.44
2023-01-17T05:31:26.119Z,60.78
2023-01-17T05:33:53.877Z,61.08
2023-01-17T05:36:21.644Z,61.26
2023-01-17T05:38:49.349Z,61.62
2023-01-17T05:41:17.227Z,61.68
2023-01-17T05:43:45.002Z,61.65
2023-01-17T05:46:12.815Z,61.59
2023-01-17T05:48:40.833Z,61.70
2023-01-17T05:51:08.607Z,62.08
2023-01-17T05:53:36.449Z,64.46
2023-01-17T05:56:04.466Z,67.37
2023-01-17T05:58:32.280Z,61.21
2023-01-17T06:01:00.140Z,53.61
2023-01-17T06:03:28.068Z,53.03
2023-01-17T06:05:55.808Z,54.92
2023-01-17T06:08:23.664Z,55.20
2023-01-17T06:10:51.399Z,56.04
2023-01-17T06:13:22.073Z,57.52
2023-01-17T06:15:49.961Z,58.34
2023-01-17T06:18:18.251Z,58.55
2023-01-17T06:20:46.121Z,59.26
2023-01-17T06:23:14.847Z,60.43
2023-01-17T06:25:44.546Z,60.36
2023-01-17T06:28:14.342Z,60.68
2023-01-17T06:30:43.830Z,60.45
2023-01-17T06:33:12.447Z,60.76
2023-01-17T06:35:41.078Z,60.91
2023-01-17T06:38:09.922Z,61.15
2023-01-17T06:40:37.741Z,60.86
2023-01-17T06:43:05.682Z,61.56
2023-01-17T06:45:34.997Z,60.82
2023-01-17T06:48:04.158Z,61.16
2023-01-17T06:50:32.719Z,61.21
2023-01-17T06:53:05.438Z,61.24
2023-01-17T06:55:34.329Z,61.34
2023-01-17T06:58:05.246Z,61.66
2023-01-17T07:00:35.158Z,61.40
2023-01-17T07:03:03.224Z,61.01
2023-01-17T07:05:31.192Z,61.28
2023-01-17T07:07:59.067Z,60.68
2023-01-17T07:10:26.822Z,60.38
2023-01-17T07:12:59.708Z,60.72
2023-01-17T07:15:27.549Z,60.38
2023-01-17T07:17:55.391Z,60.85
2023-01-17T07:20:23.189Z,60.40
2023-01-17T07:22:50.990Z,60.57
2023-01-17T07:25:20.042Z,60.45
2023-01-17T07:27:47.900Z,60.44
2023-01-17T07:30:16.133Z,60.49
2023-01-17T07:32:44.084Z,60.26
2023-01-17T07:35:11.814Z,60.55
2023-01-17T07:37:39.623Z,60.75
2023-01-17T07:40:08.092Z,60.61
2023-01-17T07:42:35.821Z,60.95
2023-01-17T07:45:03.897Z,60.71
2023-01-17T07:47:33.965Z,60.85
2023-01-17T07:50:02.929Z,60.77
2023-01-17T07:52:30.969Z,60.90
2023-01-17T07:54:58.765Z,60.52
2023-01-17T07:57:26.588Z,60.66
2023-01-17T07:59:54.400Z,60.50
2023-01-17T08:02:23.394Z,60.82
2023-01-17T08:04:51.541Z,60.76
2023-01-17T08:07:19.320Z,60.36
2023-01-17T08:09:49.842Z,60.52
2023-01-17T08:12:17.929Z,60.38
2023-01-17T08:14:45.722Z,60.20
2023-01-17T08:17:16.135Z,59.94
2023-01-17T08:19:44.893Z,59.78
2023-01-17T08:22:13.007Z,59.82
2023-01-17T08:24:41.864Z,59.29
2023-01-17T08:27:09.967Z,59.25
2023-01-17T08:29:38.293Z,59.19
2023-01-17T08:32:06.788Z,58.80
2023-01-17T08:34:34.551Z,58.10
2023-01-17T08:37:02.278Z,57.72
2023-01-17T08:39:30.018Z,57.25
2023-01-17T08:41:57.826Z,57.07
2023-01-17T08:44:25.632Z,57.41
2023-01-17T08:46:53.584Z,57.45
2023-01-17T08:49:21.344Z,57.46
2023-01-17T08:51:49.073Z,57.44
2023-01-17T08:54:17.243Z,57.55
2023-01-17T08:56:47.011Z,57.48
2023-01-17T08:59:15.172Z,57.52
2023-01-17T14:02:38.822Z,40.29
2023-01-17T14:05:21.334Z,40.75
2023-01-17T14:07:58.347Z,41.43
2023-01-17T14:10:32.417Z,42.14
2023-01-17T14:13:00.988Z,42.81
2023-01-17T14:15:31.222Z,43.21
2023-01-17T14:18:01.137Z,44.28
2023-01-17T14:20:35.038Z,44.57
2023-01-17T14:23:15.033Z,44.80
2023-01-17T14:25:43.881Z,45.09
2023-01-17T14:28:31.199Z,45.18
2023-01-17T14:31:00.388Z,45.72
2023-01-17T14:33:51.757Z,45.81
2023-01-17T14:36:27.845Z,46.36
2023-01-17T14:38:58.311Z,46.37
2023-01-17T14:41:28.165Z,46.90
2023-01-17T14:43:56.384Z,47.01
2023-01-17T14:46:27.148Z,47.25
2023-01-17T14:49:05.780Z,47.64
2023-01-17T14:51:37.295Z,47.42
2023-01-17T14:54:18.789Z,47.55
2023-01-17T14:56:46.740Z,47.52
2023-01-17T14:59:17.335Z,47.26
2023-01-17T15:02:06.001Z,47.14
2023-01-17T15:04:39.435Z,47.02
2023-01-17T15:07:14.725Z,46.83
2023-01-17T15:09:43.630Z,46.87
2023-01-17T15:12:14.496Z,46.91
2023-01-17T15:14:45.138Z,46.59
2023-01-17T15:17:20.155Z,46.79
2023-01-17T15:19:57.991Z,46.71
2023-01-17T15:22:26.481Z,46.06
2023-01-17T15:24:54.571Z,46.35
2023-01-17T15:27:24.609Z,46.42
2023-01-17T15:29:52.471Z,46.67
2023-01-17T15:32:24.351Z,46.65
2023-01-17T15:34:52.584Z,46.31
2023-01-17T15:37:29.142Z,46.22
2023-01-17T15:40:06.890Z,46.70
2023-01-17T15:42:36.597Z,46.63
2023-01-17T15:45:06.881Z,46.89
2023-01-17T15:47:38.544Z,47.08
2023-01-17T15:50:28.483Z,46.81
2023-01-17T15:53:01.045Z,46.95
2023-01-17T15:55:33.608Z,46.94
2023-01-17T15:58:02.208Z,47.14
2023-01-17T16:00:38.247Z,47.33
2023-01-17T16:03:29.209Z,47.53
2023-01-17T16:06:00.352Z,47.41
2023-01-17T16:08:38.890Z,47.74
2023-01-17T16:11:08.564Z,47.90
2023-01-17T16:13:43.210Z,47.95
2023-01-17T16:16:22.432Z,48.24
2023-01-17T16:19:02.785Z,48.20
2023-01-17T16:21:31.591Z,48.30
2023-01-17T16:23:59.973Z,48.30
2023-01-17T16:26:29.204Z,48.59
2023-01-17T16:28:57.120Z,48.82
2023-01-17T16:31:25.113Z,49.09
2023-01-17T16:33:53.066Z,49.21
2023-01-17T16:36:22.777Z,49.19
2023-01-17T16:38:51.652Z,49.17
2023-01-17T16:41:19.971Z,49.17
2023-01-17T16:43:57.682Z,49.22
2023-01-17T16:46:27.345Z,49.38
2023-01-17T16:48:55.892Z,49.44
2023-01-17T16:51:23.676Z,49.65
2023-01-17T16:53:51.451Z,49.76
2023-01-17T16:56:20.079Z,49.83
2023-01-17T16:58:48.099Z,49.78
2023-01-17T17:01:17.479Z,49.89
2023-01-17T17:03:46.026Z,50.20
2023-01-17T17:06:15.076Z,50.42
2023-01-17T17:08:43.510Z,50.57
2023-01-17T17:11:14.657Z,50.75
2023-01-17T17:13:44.593Z,51.02
2023-01-17T17:16:21.352Z,51.24
2023-01-17T17:18:58.557Z,51.45
2023-01-17T17:21:27.730Z,51.49
2023-01-17T17:23:59.090Z,51.51
2023-01-17T17:26:30.944Z,51.63
2023-01-17T17:28:58.985Z,51.84
2023-01-17T17:31:26.931Z,51.97
2023-01-17T17:33:58.391Z,52.18
2023-01-17T17:36:26.249Z,52.44
2023-01-17T17:38:55.561Z,52.54
2023-01-17T17:41:26.078Z,52.72
2023-01-17T17:43:54.429Z,53.19
2023-01-17T17:46:24.354Z,53.49
2023-01-17T17:48:52.109Z,53.72
2023-01-17T17:51:27.100Z,54.14
2023-01-17T17:53:56.575Z,54.04
2023-01-17T17:56:24.802Z,54.32
2023-01-17T17:58:54.642Z,54.57
2023-01-17T18:01:24.171Z,54.65
2023-01-17T18:03:55.351Z,54.74
2023-01-17T18:06:24.517Z,55.09
2023-01-17T18:08:52.985Z,55.23
2023-01-17T18:11:26.146Z,55.56
2023-01-17T18:13:55.757Z,56.09
2023-01-17T18:16:29.351Z,56.71
2023-01-17T18:18:58.752Z,56.97
2023-01-17T18:21:35.158Z,57.66
2023-01-17T18:24:06.285Z,57.31
2023-01-17T18:26:44.141Z,57.34
2023-01-17T18:29:15.705Z,57.38
2023-01-17T18:31:44.836Z,57.47
2023-01-17T18:34:15.760Z,57.54
2023-01-17T18:36:44.302Z,57.58
2023-01-17T18:39:14.732Z,57.50
2023-01-17T18:41:42.983Z,57.69
2023-01-17T18:44:11.149Z,57.90
2023-01-17T18:46:40.347Z,58.08
2023-01-17T18:49:11.008Z,58.26
2023-01-17T18:51:38.995Z,58.39
2023-01-17T18:54:08.762Z,58.32
2023-01-17T18:56:36.720Z,58.46
2023-01-17T18:59:06.253Z,58.35
2023-01-17T19:01:36.159Z,58.29
2023-01-17T19:04:05.265Z,58.45
2023-01-17T19:06:35.687Z,58.43
2023-01-17T19:09:05.462Z,58.41
2023-01-17T19:11:33.981Z,58.15
2023-01-17T19:14:02.777Z,58.32
2023-01-17T19:16:32.803Z,58.40
2023-01-17T19:19:03.848Z,58.44
2023-01-17T19:21:31.973Z,58.34
2023-01-17T19:23:59.806Z,58.31
2023-01-17T19:26:28.093Z,58.70
2023-01-17T19:28:57.756Z,58.83
2023-01-17T19:31:30.573Z,58.88
2023-01-17T19:33:59.716Z,59.07
2023-01-17T19:36:31.892Z,59.29
2023-01-17T19:39:04.884Z,59.46
2023-01-17T19:41:35.819Z,59.03
2023-01-17T19:44:08.510Z,58.95
2023-01-17T19:46:37.094Z,58.96
2023-01-17T19:49:06.949Z,59.11
2023-01-17T19:51:35.906Z,59.29
2023-01-17T19:54:06.368Z,59.61
2023-01-17T19:56:34.098Z,59.79
